Current Weather

Chicago Midway Intl Arpt

Chicago Midway Intl Arpt, Illinois (KMDW)

Report from: Monday, May 23, 2022 2:53 AM CDT
Current time: Monday, May 23, 2022 3:28 AM CDT

Nearby weather
Weather history
Weather forecast

Temperature11.1°C (52.0°F)
Dew point4.4°C (39.9°F)
Winds 3 kts (1.5 m/s, 3.5 mph) North-Northeast (20°)
Visibility10 mi. (16.1 km)
Clouds Scattered clouds 25,000 ft. (7,620 m)
Altimeter30.36 in.Hg (1028 mB)
Relative humidity63 %
Density altitude-843 ft. (-257 m)
Sea-level pressure102.8 kPa (1028 mB, 30.35 in.Hg)
Remarks System requires maintenance
Automated weather observing station with precipitation discriminator
Flight conditions Visual Meteorological Conditions
Raw dataKMDW 230753Z 02003KT 10SM SCT250 11/04 A3036 RMK AO2 SLP279 T01110044 $
An error has occurred. This application may no longer respond until reloaded. Reload 🗙